sensor_id;sensor_type;location;lat;lon;timestamp;pressure;altitude;pressure_sealevel;temperature;humidity
9277;BME280;4676;42.678;23.244;2023-02-05T00:01:13;94120.91;;;-2.65;100.00
9277;BME280;4676;42.678;23.244;2023-02-05T00:03:39;94133.31;;;-2.62;100.00
9277;BME280;4676;42.678;23.244;2023-02-05T00:06:07;94126.63;;;-2.72;100.00
9277;BME280;4676;42.678;23.244;2023-02-05T00:08:33;94131.56;;;-2.75;100.00
9277;BME280;4676;42.678;23.244;2023-02-05T00:11:00;94129.91;;;-2.75;100.00
9277;BME280;4676;42.678;23.244;2023-02-05T00:13:34;94129.88;;;-2.76;100.00
9277;BME280;4676;42.678;23.244;2023-02-05T00:16:06;94128.31;;;-2.67;100.00
9277;BME280;4676;42.678;23.244;2023-02-05T00:18:33;94131.56;;;-2.72;100.00
9277;BME280;4676;42.678;23.244;2023-02-05T00:20:59;94134.91;;;-2.72;100.00
9277;BME280;4676;42.678;23.244;2023-02-05T00:23:26;94135.63;;;-2.80;100.00
9277;BME280;4676;42.678;23.244;2023-02-05T00:25:53;94138.84;;;-2.87;100.00
9277;BME280;4676;42.678;23.244;2023-02-05T00:28:20;94132.22;;;-2.88;100.00
9277;BME280;4676;42.678;23.244;2023-02-05T00:30:48;94143.81;;;-2.89;100.00
9277;BME280;4676;42.678;23.244;2023-02-05T00:33:14;94146.16;;;-2.99;100.00
9277;BME280;4676;42.678;23.244;2023-02-05T00:35:41;94142.84;;;-3.00;100.00
9277;BME280;4676;42.678;23.244;2023-02-05T00:38:08;94137.13;;;-2.96;100.00
9277;BME280;4676;42.678;23.244;2023-02-05T00:40:35;94147.03;;;-2.96;100.00
9277;BME280;4676;42.678;23.244;2023-02-05T00:43:01;94107.03;;;-3.23;100.00
9277;BME280;4676;42.678;23.244;2023-02-05T00:45:28;94151.91;;;-3.00;100.00
9277;BME280;4676;42.678;23.244;2023-02-05T00:48:00;94158.53;;;-3.01;100.00
9277;BME280;4676;42.678;23.244;2023-02-05T00:50:27;94161.78;;;-3.07;100.00
9277;BME280;4676;42.678;23.244;2023-02-05T00:52:54;94163.41;;;-3.06;100.00
9277;BME280;4676;42.678;23.244;2023-02-05T00:55:21;94159.22;;;-3.10;100.00
9277;BME280;4676;42.678;23.244;2023-02-05T00:57:48;94157.56;;;-3.12;100.00
9277;BME280;4676;42.678;23.244;2023-02-05T01:00:16;94144.16;;;-3.28;100.00
9277;BME280;4676;42.678;23.244;2023-02-05T01:02:42;94155.09;;;-3.11;100.00
9277;BME280;4676;42.678;23.244;2023-02-05T01:05:11;94155.91;;;-3.13;100.00
9277;BME280;4676;42.678;23.244;2023-02-05T01:07:38;94155.16;;;-3.05;100.00
9277;BME280;4676;42.678;23.244;2023-02-05T01:10:05;94154.97;;;-3.20;100.00
9277;BME280;4676;42.678;23.244;2023-02-05T01:12:32;94158.38;;;-3.12;100.00
9277;BME280;4676;42.678;23.244;2023-02-05T01:14:59;94145.13;;;-3.17;100.00
9277;BME280;4676;42.678;23.244;2023-02-05T01:17:26;94160.81;;;-3.18;100.00
9277;BME280;4676;42.678;23.244;2023-02-05T01:19:52;94149.25;;;-3.17;100.00
9277;BME280;4676;42.678;23.244;2023-02-05T01:22:21;94169.88;;;-3.18;100.00
9277;BME280;4676;42.678;23.244;2023-02-05T01:24:47;94153.19;;;-3.31;100.00
9277;BME280;4676;42.678;23.244;2023-02-05T01:27:14;94173.84;;;-3.29;100.00
9277;BME280;4676;42.678;23.244;2023-02-05T01:29:41;94166.25;;;-3.43;100.00
9277;BME280;4676;42.678;23.244;2023-02-05T01:32:07;94167.06;;;-3.42;100.00
9277;BME280;4676;42.678;23.244;2023-02-05T01:34:34;94170.97;;;-3.58;100.00
9277;BME280;4676;42.678;23.244;2023-02-05T01:37:01;94165.19;;;-3.59;100.00
9277;BME280;4676;42.678;23.244;2023-02-05T01:39:29;94166.03;;;-3.60;100.00
9277;BME280;4676;42.678;23.244;2023-02-05T01:41:56;94179.97;;;-3.66;100.00
9277;BME280;4676;42.678;23.244;2023-02-05T01:44:23;94176.59;;;-3.68;100.00
9277;BME280;4676;42.678;23.244;2023-02-05T01:46:51;94176.75;;;-3.59;100.00
9277;BME280;4676;42.678;23.244;2023-02-05T01:49:22;94171.84;;;-3.56;100.00
9277;BME280;4676;42.678;23.244;2023-02-05T01:51:52;94179.19;;;-3.61;100.00
9277;BME280;4676;42.678;23.244;2023-02-05T01:54:21;94175.06;;;-3.62;100.00
9277;BME280;4676;42.678;23.244;2023-02-05T01:56:53;94183.25;;;-3.67;100.00
9277;BME280;4676;42.678;23.244;2023-02-05T01:59:25;94180.03;;;-3.60;100.00
9277;BME280;4676;42.678;23.244;2023-02-05T02:01:53;94187.53;;;-3.56;100.00
9277;BME280;4676;42.678;23.244;2023-02-05T02:04:31;94190.03;;;-3.54;100.00
9277;BME280;4676;42.678;23.244;2023-02-05T02:07:00;94178.41;;;-3.58;100.00
9277;BME280;4676;42.678;23.244;2023-02-05T02:09:27;94195.88;;;-3.49;100.00
9277;BME280;4676;42.678;23.244;2023-02-05T02:11:56;94196.66;;;-3.53;100.00
9277;BME280;4676;42.678;23.244;2023-02-05T02:14:25;94194.97;;;-3.54;100.00
9277;BME280;4676;42.678;23.244;2023-02-05T02:16:54;94197.50;;;-3.53;100.00
9277;BME280;4676;42.678;23.244;2023-02-05T02:19:26;94208.19;;;-3.54;100.00
9277;BME280;4676;42.678;23.244;2023-02-05T02:22:23;94201.56;;;-3.56;100.00
9277;BME280;4676;42.678;23.244;2023-02-05T02:25:16;94209.69;;;-3.65;100.00
9277;BME280;4676;42.678;23.244;2023-02-05T02:27:52;94201.28;;;-3.74;100.00
9277;BME280;4676;42.678;23.244;2023-02-05T02:30:23;94199.59;;;-3.75;100.00
9277;BME280;4676;42.678;23.244;2023-02-05T02:33:00;94192.19;;;-3.75;100.00
9277;BME280;4676;42.678;23.244;2023-02-05T02:35:35;94189.69;;;-3.77;100.00
9277;BME280;4676;42.678;23.244;2023-02-05T02:38:10;94202.81;;;-3.82;100.00
9277;BME280;4676;42.678;23.244;2023-02-05T02:40:41;94198.66;;;-3.83;100.00
9277;BME280;4676;42.678;23.244;2023-02-05T02:43:14;94209.44;;;-3.80;100.00
9277;BME280;4676;42.678;23.244;2023-02-05T02:45:45;94206.13;;;-3.82;100.00
9277;BME280;4676;42.678;23.244;2023-02-05T02:48:15;94208.56;;;-3.83;100.00
9277;BME280;4676;42.678;23.244;2023-02-05T02:50:46;94207.66;;;-3.87;100.00
9277;BME280;4676;42.678;23.244;2023-02-05T02:53:16;94228.22;;;-3.92;100.00
9277;BME280;4676;42.678;23.244;2023-02-05T02:55:46;94223.84;;;-4.07;100.00
9277;BME280;4676;42.678;23.244;2023-02-05T02:58:19;94218.19;;;-4.01;100.00
9277;BME280;4676;42.678;23.244;2023-02-05T03:00:48;94218.09;;;-4.05;100.00
9277;BME280;4676;42.678;23.244;2023-02-05T03:03:17;94216.47;;;-4.04;100.00
9277;BME280;4676;42.678;23.244;2023-02-05T03:05:47;94222.25;;;-4.05;100.00
9277;BME280;4676;42.678;23.244;2023-02-05T03:08:18;94219.06;;;-3.96;100.00
9277;BME280;4676;42.678;23.244;2023-02-05T03:10:51;94223.34;;;-3.86;100.00
9277;BME280;4676;42.678;23.244;2023-02-05T03:13:21;94224.94;;;-3.90;100.00
9277;BME280;4676;42.678;23.244;2023-02-05T03:15:48;94223.22;;;-3.95;100.00
9277;BME280;4676;42.678;23.244;2023-02-05T03:18:16;94228.00;;;-4.05;100.00
9277;BME280;4676;42.678;23.244;2023-02-05T03:20:46;94239.44;;;-4.13;100.00
9277;BME280;4676;42.678;23.244;2023-02-05T03:23:13;94232.84;;;-4.11;100.00
9277;BME280;4676;42.678;23.244;2023-02-05T03:25:40;94238.53;;;-4.16;100.00
9277;BME280;4676;42.678;23.244;2023-02-05T03:28:07;94233.56;;;-4.19;100.00
9277;BME280;4676;42.678;23.244;2023-02-05T03:30:41;94245.00;;;-4.24;100.00
9277;BME280;4676;42.678;23.244;2023-02-05T03:33:24;94202.34;;;-4.58;100.00
9277;BME280;4676;42.678;23.244;2023-02-05T03:35:58;94234.81;;;-4.41;100.00
9277;BME280;4676;42.678;23.244;2023-02-05T03:38:36;94238.31;;;-4.30;100.00
9277;BME280;4676;42.678;23.244;2023-02-05T03:41:15;94242.41;;;-4.30;100.00
9277;BME280;4676;42.678;23.244;2023-02-05T03:43:49;94256.41;;;-4.31;100.00
9277;BME280;4676;42.678;23.244;2023-02-05T03:46:27;94239.72;;;-4.42;100.00
9277;BME280;4676;42.678;23.244;2023-02-05T03:49:03;94242.19;;;-4.42;100.00
9277;BME280;4676;42.678;23.244;2023-02-05T03:51:37;94243.81;;;-4.43;100.00
9277;BME280;4676;42.678;23.244;2023-02-05T03:54:11;94241.28;;;-4.47;100.00
9277;BME280;4676;42.678;23.244;2023-02-05T03:56:44;94242.03;;;-4.51;100.00
9277;BME280;4676;42.678;23.244;2023-02-05T03:59:14;94248.69;;;-4.47;100.00
9277;BME280;4676;42.678;23.244;2023-02-05T04:01:43;94254.59;;;-4.41;100.00
9277;BME280;4676;42.678;23.244;2023-02-05T04:04:11;94257.06;;;-4.39;100.00
9277;BME280;4676;42.678;23.244;2023-02-05T04:06:38;94256.88;;;-4.50;100.00
9277;BME280;4676;42.678;23.244;2023-02-05T04:09:05;94259.47;;;-4.44;100.00
9277;BME280;4676;42.678;23.244;2023-02-05T04:11:32;94264.31;;;-4.48;100.00
9277;BME280;4676;42.678;23.244;2023-02-05T04:13:59;94267.63;;;-4.48;100.00
9277;BME280;4676;42.678;23.244;2023-02-05T04:16:25;94263.44;;;-4.52;100.00
9277;BME280;4676;42.678;23.244;2023-02-05T04:18:53;94269.13;;;-4.56;100.00
9277;BME280;4676;42.678;23.244;2023-02-05T04:21:20;94262.50;;;-4.59;100.00
9277;BME280;4676;42.678;23.244;2023-02-05T04:23:47;94269.19;;;-4.53;100.00
9277;BME280;4676;42.678;23.244;2023-02-05T04:26:13;94266.44;;;-4.68;100.00
9277;BME280;4676;42.678;23.244;2023-02-05T04:28:40;94268.06;;;-4.69;100.00
9277;BME280;4676;42.678;23.244;2023-02-05T04:31:08;94271.44;;;-4.65;100.00
9277;BME280;4676;42.678;23.244;2023-02-05T04:33:35;94269.69;;;-4.69;100.00
9277;BME280;4676;42.678;23.244;2023-02-05T04:36:05;94273.28;;;-4.55;100.00
9277;BME280;4676;42.678;23.244;2023-02-05T04:38:32;94271.59;;;-4.58;100.00
9277;BME280;4676;42.678;23.244;2023-02-05T04:40:59;94274.19;;;-4.50;100.00
9277;BME280;4676;42.678;23.244;2023-02-05T04:43:25;94281.31;;;-4.64;100.00
9277;BME280;4676;42.678;23.244;2023-02-05T04:45:52;94272.91;;;-4.73;100.00
9277;BME280;4676;42.678;23.244;2023-02-05T04:48:19;94276.09;;;-4.79;100.00
9277;BME280;4676;42.678;23.244;2023-02-05T04:50:46;94283.63;;;-4.73;100.00
9277;BME280;4676;42.678;23.244;2023-02-05T04:53:14;94276.38;;;-4.65;100.00
9277;BME280;4676;42.678;23.244;2023-02-05T04:55:41;94273.63;;;-4.77;100.00
9277;BME280;4676;42.678;23.244;2023-02-05T04:58:08;94245.91;;;-5.03;100.00
9277;BME280;4676;42.678;23.244;2023-02-05T05:00:35;94286.56;;;-4.90;100.00
9277;BME280;4676;42.678;23.244;2023-02-05T05:03:01;94284.88;;;-4.93;100.00
9277;BME280;4676;42.678;23.244;2023-02-05T05:05:28;94295.78;;;-4.82;100.00
9277;BME280;4676;42.678;23.244;2023-02-05T05:07:55;94295.78;;;-4.82;100.00
9277;BME280;4676;42.678;23.244;2023-02-05T05:10:23;94293.28;;;-4.83;100.00
9277;BME280;4676;42.678;23.244;2023-02-05T05:12:50;94299.69;;;-4.91;100.00
9277;BME280;4676;42.678;23.244;2023-02-05T05:15:18;94300.25;;;-5.05;100.00
9277;BME280;4676;42.678;23.244;2023-02-05T05:17:44;94296.16;;;-5.03;100.00
9277;BME280;4676;42.678;23.244;2023-02-05T05:20:11;94298.81;;;-4.95;100.00
9277;BME280;4676;42.678;23.244;2023-02-05T05:22:38;94305.44;;;-4.94;100.00
9277;BME280;4676;42.678;23.244;2023-02-05T05:25:05;94311.00;;;-5.03;100.00
9277;BME280;4676;42.678;23.244;2023-02-05T05:27:33;94305.38;;;-4.95;100.00
9277;BME280;4676;42.678;23.244;2023-02-05T05:30:00;94307.78;;;-5.00;100.00
9277;BME280;4676;42.678;23.244;2023-02-05T05:32:26;94316.91;;;-4.96;100.00
9277;BME280;4676;42.678;23.244;2023-02-05T05:34:53;94321.84;;;-4.96;100.00
9277;BME280;4676;42.678;23.244;2023-02-05T05:37:21;94315.84;;;-5.07;100.00
9277;BME280;4676;42.678;23.244;2023-02-05T05:39:48;94328.41;;;-4.98;100.00
9277;BME280;4676;42.678;23.244;2023-02-05T05:42:33;94338.16;;;-5.03;100.00
9277;BME280;4676;42.678;23.244;2023-02-05T05:45:18;94337.44;;;-4.98;100.00
9277;BME280;4676;42.678;23.244;2023-02-05T05:47:44;94343.28;;;-4.95;100.00
9277;BME280;4676;42.678;23.244;2023-02-05T05:50:11;94345.81;;;-4.93;100.00
9277;BME280;4676;42.678;23.244;2023-02-05T05:52:38;94348.13;;;-4.99;100.00
9277;BME280;4676;42.678;23.244;2023-02-05T05:55:05;94348.88;;;-5.03;100.00
9277;BME280;4676;42.678;23.244;2023-02-05T05:57:33;94347.97;;;-5.07;100.00
9277;BME280;4676;42.678;23.244;2023-02-05T06:00:00;94348.94;;;-5.00;100.00
9277;BME280;4676;42.678;23.244;2023-02-05T06:02:28;94352.31;;;-4.97;100.00
9277;BME280;4676;42.678;23.244;2023-02-05T06:04:54;94359.13;;;-4.87;100.00
9277;BME280;4676;42.678;23.244;2023-02-05T06:07:21;94350.31;;;-4.74;100.00
9277;BME280;4676;42.678;23.244;2023-02-05T06:09:47;94353.84;;;-4.63;100.00
9277;BME280;4676;42.678;23.244;2023-02-05T06:12:14;94357.88;;;-4.68;100.00
9277;BME280;4676;42.678;23.244;2023-02-05T06:14:42;94364.59;;;-4.63;100.00
9277;BME280;4676;42.678;23.244;2023-02-05T06:17:09;94368.69;;;-4.63;100.00
9277;BME280;4676;42.678;23.244;2023-02-05T06:19:36;94373.69;;;-4.62;100.00
9277;BME280;4676;42.678;23.244;2023-02-05T06:22:02;94384.97;;;-4.73;100.00
9277;BME280;4676;42.678;23.244;2023-02-05T06:24:29;94392.09;;;-4.86;100.00
9277;BME280;4676;42.678;23.244;2023-02-05T06:26:56;94386.25;;;-4.88;100.00
9277;BME280;4676;42.678;23.244;2023-02-05T06:29:22;94388.59;;;-4.94;100.00
9277;BME280;4676;42.678;23.244;2023-02-05T06:31:51;94395.22;;;-4.93;100.00
9277;BME280;4676;42.678;23.244;2023-02-05T06:34:17;94396.13;;;-4.88;100.00
9277;BME280;4676;42.678;23.244;2023-02-05T06:36:44;94398.91;;;-4.76;100.00
9277;BME280;4676;42.678;23.244;2023-02-05T06:39:11;94405.34;;;-4.83;100.00
9277;BME280;4676;42.678;23.244;2023-02-05T06:41:37;94405.22;;;-4.87;100.00
9277;BME280;4676;42.678;23.244;2023-02-05T06:44:04;94405.41;;;-4.80;100.00
9277;BME280;4676;42.678;23.244;2023-02-05T06:46:31;94402.81;;;-4.86;100.00
9277;BME280;4676;42.678;23.244;2023-02-05T06:48:59;94412.47;;;-4.95;100.00
9277;BME280;4676;42.678;23.244;2023-02-05T06:51:26;94424.06;;;-4.92;100.00
9277;BME280;4676;42.678;23.244;2023-02-05T06:53:52;94432.16;;;-4.98;100.00
9277;BME280;4676;42.678;23.244;2023-02-05T06:56:21;94436.28;;;-4.98;100.00
9277;BME280;4676;42.678;23.244;2023-02-05T06:58:48;94424.72;;;-4.99;100.00
9277;BME280;4676;42.678;23.244;2023-02-05T07:01:15;94421.50;;;-4.95;100.00
9277;BME280;4676;42.678;23.244;2023-02-05T07:03:42;94415.06;;;-4.90;100.00
9277;BME280;4676;42.678;23.244;2023-02-05T07:06:10;94426.03;;;-4.78;100.00
9277;BME280;4676;42.678;23.244;2023-02-05T07:08:37;94432.66;;;-4.77;100.00
9277;BME280;4676;42.678;23.244;2023-02-05T07:11:04;94443.97;;;-4.86;100.00
9277;BME280;4676;42.678;23.244;2023-02-05T07:13:31;94442.25;;;-4.89;100.00
9277;BME280;4676;42.678;23.244;2023-02-05T07:16:02;94432.22;;;-4.96;100.00
9277;BME280;4676;42.678;23.244;2023-02-05T07:18:29;94445.75;;;-4.81;100.00
9277;BME280;4676;42.678;23.244;2023-02-05T07:20:57;94450.09;;;-4.71;100.00
9277;BME280;4676;42.678;23.244;2023-02-05T07:23:25;94448.34;;;-4.76;100.00
9277;BME280;4676;42.678;23.244;2023-02-05T07:25:51;94447.63;;;-4.71;100.00
9277;BME280;4676;42.678;23.244;2023-02-05T07:28:18;94448.69;;;-4.61;100.00
9277;BME280;4676;42.678;23.244;2023-02-05T07:30:45;94449.59;;;-4.56;100.00
9277;BME280;4676;42.678;23.244;2023-02-05T07:33:14;94449.69;;;-4.53;100.00
9277;BME280;4676;42.678;23.244;2023-02-05T07:35:41;94449.06;;;-4.44;100.00
9277;BME280;4676;42.678;23.244;2023-02-05T07:38:07;94449.13;;;-4.41;100.00
9277;BME280;4676;42.678;23.244;2023-02-05T07:40:37;94453.75;;;-4.55;100.00
9277;BME280;4676;42.678;23.244;2023-02-05T07:43:03;94464.34;;;-4.61;100.00
9277;BME280;4676;42.678;23.244;2023-02-05T07:45:30;94440.19;;;-4.72;100.00
9277;BME280;4676;42.678;23.244;2023-02-05T07:47:57;94467.03;;;-4.51;100.00
9277;BME280;4676;42.678;23.244;2023-02-05T07:50:23;94467.72;;;-4.57;100.00
9277;BME280;4676;42.678;23.244;2023-02-05T07:52:50;94470.34;;;-4.49;100.00
9277;BME280;4676;42.678;23.244;2023-02-05T07:55:17;94477.06;;;-4.45;100.00
9277;BME280;4676;42.678;23.244;2023-02-05T07:57:45;94478.69;;;-4.46;100.00
9277;BME280;4676;42.678;23.244;2023-02-05T08:00:12;94483.78;;;-4.40;100.00
9277;BME280;4676;42.678;23.244;2023-02-05T08:02:39;94482.78;;;-4.48;100.00
9277;BME280;4676;42.678;23.244;2023-02-05T08:05:06;94493.53;;;-4.46;100.00
9277;BME280;4676;42.678;23.244;2023-02-05T08:07:33;94480.00;;;-4.62;100.00
9277;BME280;4676;42.678;23.244;2023-02-05T08:10:01;94408.97;;;-5.03;100.00
9277;BME280;4676;42.678;23.244;2023-02-05T08:12:28;94497.59;;;-4.48;100.00
9277;BME280;4676;42.678;23.244;2023-02-05T08:14:56;94491.22;;;-4.40;100.00
9277;BME280;4676;42.678;23.244;2023-02-05T08:17:23;94492.19;;;-4.32;100.00
9277;BME280;4676;42.678;23.244;2023-02-05T08:19:49;94503.00;;;-4.28;100.00
9277;BME280;4676;42.678;23.244;2023-02-05T08:22:16;94493.16;;;-4.27;100.00
9277;BME280;4676;42.678;23.244;2023-02-05T08:24:43;94476.06;;;-4.15;100.00
9277;BME280;4676;42.678;23.244;2023-02-05T08:27:10;94499.50;;;-3.99;100.00
9277;BME280;4676;42.678;23.244;2023-02-05T08:29:36;94496.25;;;-3.96;100.00
9277;BME280;4676;42.678;23.244;2023-02-05T08:32:05;94496.38;;;-3.90;100.00
9277;BME280;4676;42.678;23.244;2023-02-05T08:34:32;94489.00;;;-3.89;100.00
9277;BME280;4676;42.678;23.244;2023-02-05T08:36:59;94504.03;;;-3.80;100.00
9277;BME280;4676;42.678;23.244;2023-02-05T08:39:26;94503.38;;;-3.71;100.00
9277;BME280;4676;42.678;23.244;2023-02-05T08:41:52;94500.28;;;-3.61;100.00
9277;BME280;4676;42.678;23.244;2023-02-05T08:44:19;94506.22;;;-3.53;100.00
9277;BME280;4676;42.678;23.244;2023-02-05T08:46:46;94505.50;;;-3.49;100.00
9277;BME280;4676;42.678;23.244;2023-02-05T08:49:14;94513.13;;;-3.37;100.00
9277;BME280;4676;42.678;23.244;2023-02-05T08:51:41;94515.44;;;-3.46;100.00
9277;BME280;4676;42.678;23.244;2023-02-05T08:54:08;94506.22;;;-3.53;100.00
9277;BME280;4676;42.678;23.244;2023-02-05T08:56:37;94520.41;;;-3.44;100.00
9277;BME280;4676;42.678;23.244;2023-02-05T08:59:04;94522.19;;;-3.39;100.00
9277;BME280;4676;42.678;23.244;2023-02-05T09:01:32;94516.50;;;-3.77;100.00
9277;BME280;4676;42.678;23.244;2023-02-05T09:04:01;94529.44;;;-3.48;100.00
9277;BME280;4676;42.678;23.244;2023-02-05T09:06:29;94534.25;;;-3.14;100.00
9277;BME280;4676;42.678;23.244;2023-02-05T09:08:56;94535.28;;;-3.01;100.00
9277;BME280;4676;42.678;23.244;2023-02-05T09:11:23;94538.81;;;-2.90;100.00
9277;BME280;4676;42.678;23.244;2023-02-05T09:13:51;94536.91;;;-3.03;100.00
9277;BME280;4676;42.678;23.244;2023-02-05T09:16:18;94541.13;;;-3.42;100.00
9277;BME280;4676;42.678;23.244;2023-02-05T09:18:45;94545.38;;;-3.35;100.00
9277;BME280;4676;42.678;23.244;2023-02-05T09:21:12;94549.22;;;-3.06;100.00
9277;BME280;4676;42.678;23.244;2023-02-05T09:23:40;94552.22;;;-2.79;100.00
9277;BME280;4676;42.678;23.244;2023-02-05T09:26:07;94550.31;;;-2.93;100.00
9277;BME280;4676;42.678;23.244;2023-02-05T09:28:34;94557.19;;;-2.77;100.00
9277;BME280;4676;42.678;23.244;2023-02-05T09:31:04;94524.97;;;-3.24;100.00
9277;BME280;4676;42.678;23.244;2023-02-05T09:33:31;94555.84;;;-3.07;100.00
9277;BME280;4676;42.678;23.244;2023-02-05T09:36:04;94562.22;;;-3.19;100.00
9277;BME280;4676;42.678;23.244;2023-02-05T09:38:30;94564.72;;;-3.18;100.00
9277;BME280;4676;42.678;23.244;2023-02-05T09:41:02;94571.41;;;-3.14;100.00
9277;BME280;4676;42.678;23.244;2023-02-05T09:43:40;94555.38;;;-2.87;100.00
9277;BME280;4676;42.678;23.244;2023-02-05T09:46:13;94556.56;;;-3.12;100.00
9277;BME280;4676;42.678;23.244;2023-02-05T09:48:48;94563.50;;;-2.96;100.00
9277;BME280;4676;42.678;23.244;2023-02-05T09:51:20;94567.34;;;-3.10;100.00
9277;BME280;4676;42.678;23.244;2023-02-05T09:53:51;94559.56;;;-2.35;100.00
9277;BME280;4676;42.678;23.244;2023-02-05T09:56:20;94568.50;;;-2.46;100.00
9277;BME280;4676;42.678;23.244;2023-02-05T09:58:49;94558.63;;;-2.90;100.00
9277;BME280;4676;42.678;23.244;2023-02-05T10:01:21;94558.34;;;-3.05;99.69
9277;BME280;4676;42.678;23.244;2023-02-05T10:03:53;94560.56;;;-3.19;99.41
9277;BME280;4676;42.678;23.244;2023-02-05T10:09:47;94562.00;;;-2.86;100.00
9277;BME280;4676;42.678;23.244;2023-02-05T10:12:26;94569.53;;;-2.80;100.00
9277;BME280;4676;42.678;23.244;2023-02-05T10:15:06;94563.50;;;-2.96;99.52
9277;BME280;4676;42.678;23.244;2023-02-05T10:17:48;94547.75;;;-2.98;100.00
9277;BME280;4676;42.678;23.244;2023-02-05T10:20:29;94573.25;;;-3.04;99.16
9277;BME280;4676;42.678;23.244;2023-02-05T10:23:11;94567.47;;;-3.03;98.45
9277;BME280;4676;42.678;23.244;2023-02-05T10:25:49;94563.34;;;-3.04;96.60
9277;BME280;4676;42.678;23.244;2023-02-05T10:28:31;94567.41;;;-3.06;96.34
9277;BME280;4676;42.678;23.244;2023-02-05T10:31:05;94564.00;;;-3.14;96.14
9277;BME280;4676;42.678;23.244;2023-02-05T10:33:44;94567.63;;;-3.38;97.34
9277;BME280;4676;42.678;23.244;2023-02-05T10:36:13;94571.75;;;-3.39;95.83
9277;BME280;4676;42.678;23.244;2023-02-05T10:38:42;94582.06;;;-3.58;91.36
9277;BME280;4676;42.678;23.244;2023-02-05T10:41:16;94579.03;;;-3.46;93.90
9277;BME280;4676;42.678;23.244;2023-02-05T10:43:49;94579.34;;;-3.31;93.56
9277;BME280;4676;42.678;23.244;2023-02-05T10:46:18;94575.13;;;-3.35;92.37
9277;BME280;4676;42.678;23.244;2023-02-05T10:48:46;94575.75;;;-3.44;90.81
9277;BME280;4676;42.678;23.244;2023-02-05T10:51:18;94566.78;;;-3.39;88.98
9277;BME280;4676;42.678;23.244;2023-02-05T10:53:47;94570.47;;;-3.20;88.29
9277;BME280;4676;42.678;23.244;2023-02-05T10:56:16;94566.78;;;-2.97;86.51
9277;BME280;4676;42.678;23.244;2023-02-05T10:58:44;94571.00;;;-2.91;86.61
9277;BME280;4676;42.678;23.244;2023-02-05T11:01:16;94567.56;;;-2.99;91.45
9277;BME280;4676;42.678;23.244;2023-02-05T11:03:51;94566.97;;;-2.86;88.20
9277;BME280;4676;42.678;23.244;2023-02-05T11:06:20;94577.97;;;-2.72;85.44
9277;BME280;4676;42.678;23.244;2023-02-05T11:08:47;94578.25;;;-2.57;85.16
9277;BME280;4676;42.678;23.244;2023-02-05T11:11:22;94569.16;;;-2.55;82.18
9277;BME280;4676;42.678;23.244;2023-02-05T11:13:54;94581.66;;;-2.49;84.77
9277;BME280;4676;42.678;23.244;2023-02-05T11:16:23;94579.31;;;-2.41;85.83
9277;BME280;4676;42.678;23.244;2023-02-05T11:19:00;94582.47;;;-2.52;87.64
9277;BME280;4676;42.678;23.244;2023-02-05T11:21:45;94570.81;;;-2.56;90.66
9277;BME280;4676;42.678;23.244;2023-02-05T11:24:28;94579.44;;;-2.34;85.33
9277;BME280;4676;42.678;23.244;2023-02-05T11:27:24;94576.16;;;-2.31;81.31
9277;BME280;4676;42.678;23.244;2023-02-05T11:29:51;94580.28;;;-2.33;78.87
9277;BME280;4676;42.678;23.244;2023-02-05T11:32:21;94571.06;;;-2.39;80.76
9277;BME280;4676;42.678;23.244;2023-02-05T11:34:49;94568.81;;;-2.27;77.73
9277;BME280;4676;42.678;23.244;2023-02-05T11:37:17;94574.84;;;-2.11;77.05
9277;BME280;4676;42.678;23.244;2023-02-05T11:39:45;94571.28;;;-1.73;78.49
9277;BME280;4676;42.678;23.244;2023-02-05T11:42:20;94575.88;;;-1.98;78.08
9277;BME280;4676;42.678;23.244;2023-02-05T11:44:49;94554.00;;;-1.64;100.00
9277;BME280;4676;42.678;23.244;2023-02-05T11:47:24;94546.25;;;-2.40;87.41
9277;BME280;4676;42.678;23.244;2023-02-05T11:49:53;94577.94;;;-2.24;84.46
9277;BME280;4676;42.678;23.244;2023-02-05T11:52:25;94568.66;;;-1.83;85.17
9277;BME280;4676;42.678;23.244;2023-02-05T11:54:52;94571.44;;;-1.61;80.49
9277;BME280;4676;42.678;23.244;2023-02-05T11:57:32;94570.44;;;-1.72;83.60
9277;BME280;4676;42.678;23.244;2023-02-05T12:00:05;94563.59;;;-1.88;91.74
9277;BME280;4676;42.678;23.244;2023-02-05T12:02:45;94563.38;;;-2.05;96.59
9277;BME280;4676;42.678;23.244;2023-02-05T12:05:17;94571.75;;;-1.96;100.00
9277;BME280;4676;42.678;23.244;2023-02-05T12:07:47;94565.16;;;-1.93;100.00
9277;BME280;4676;42.678;23.244;2023-02-05T12:10:18;94559.94;;;-2.13;100.00
9277;BME280;4676;42.678;23.244;2023-02-05T12:13:02;94564.25;;;-1.99;100.00
9277;BME280;4676;42.678;23.244;2023-02-05T12:15:36;94546.41;;;-1.74;100.00
9277;BME280;4676;42.678;23.244;2023-02-05T12:18:14;94557.56;;;-1.45;100.00
9277;BME280;4676;42.678;23.244;2023-02-05T12:20:49;94559.19;;;-1.47;100.00
9277;BME280;4676;42.678;23.244;2023-02-05T12:23:45;94560.75;;;-1.55;100.00
9277;BME280;4676;42.678;23.244;2023-02-05T12:26:27;94560.06;;;-1.45;96.61
9277;BME280;4676;42.678;23.244;2023-02-05T12:29:22;94559.06;;;-1.56;95.45
9277;BME280;4676;42.678;23.244;2023-02-05T12:32:00;94555.63;;;-1.67;100.00
9277;BME280;4676;42.678;23.244;2023-02-05T12:34:39;94564.81;;;-1.60;100.00
9277;BME280;4676;42.678;23.244;2023-02-05T12:37:29;94564.75;;;-1.66;100.00
9277;BME280;4676;42.678;23.244;2023-02-05T12:40:06;94554.31;;;-1.99;100.00
9277;BME280;4676;42.678;23.244;2023-02-05T12:42:38;94574.03;;;-2.12;100.00
9277;BME280;4676;42.678;23.244;2023-02-05T12:45:31;94569.72;;;-2.22;100.00
9277;BME280;4676;42.678;23.244;2023-02-05T12:48:11;94567.97;;;-2.27;100.00
9277;BME280;4676;42.678;23.244;2023-02-05T12:50:52;94571.03;;;-2.42;100.00
9277;BME280;4676;42.678;23.244;2023-02-05T12:53:34;94568.69;;;-2.34;100.00
9277;BME280;4676;42.678;23.244;2023-02-05T12:56:26;94571.50;;;-2.15;100.00
9277;BME280;4676;42.678;23.244;2023-02-05T12:58:59;94570.78;;;-2.08;100.00
9277;BME280;4676;42.678;23.244;2023-02-05T13:01:34;94563.97;;;-2.19;100.00
9277;BME280;4676;42.678;23.244;2023-02-05T13:04:05;94573.09;;;-2.17;100.00
9277;BME280;4676;42.678;23.244;2023-02-05T13:06:38;94563.41;;;-2.54;100.00
9277;BME280;4676;42.678;23.244;2023-02-05T13:09:13;94571.31;;;-2.75;100.00
9277;BME280;4676;42.678;23.244;2023-02-05T13:11:46;94566.38;;;-2.73;100.00
9277;BME280;4676;42.678;23.244;2023-02-05T13:14:20;94572.72;;;-2.87;100.00
9277;BME280;4676;42.678;23.244;2023-02-05T13:16:50;94571.75;;;-2.95;100.00
9277;BME280;4676;42.678;23.244;2023-02-05T13:19:24;94571.63;;;-3.02;100.00
9277;BME280;4676;42.678;23.244;2023-02-05T13:21:56;94574.75;;;-3.13;100.00